createdAt,value
2022-09-17T00:02:49.794Z,10.30
2022-09-17T00:07:53.357Z,10.10
2022-09-17T00:12:55.854Z,10.00
2022-09-17T00:17:58.887Z,10.00
2022-09-17T00:23:01.194Z,10.10
2022-09-17T00:28:03.514Z,10.20
2022-09-17T00:33:05.837Z,10.20
2022-09-17T00:38:08.173Z,10.10
2022-09-17T00:43:12.590Z,10.00
2022-09-17T00:48:22.511Z,10.00
2022-09-17T00:53:24.950Z,10.00
2022-09-17T00:58:27.656Z,10.00
2022-09-17T01:03:30.061Z,9.90
2022-09-17T01:08:51.249Z,9.80
2022-09-17T01:14:15.138Z,9.70
2022-09-17T01:19:57.878Z,9.60
2022-09-17T01:25:24.866Z,9.50
2022-09-17T01:30:31.851Z,9.50
2022-09-17T01:35:56.441Z,9.50
2022-09-17T01:41:01.890Z,9.50
2022-09-17T01:46:14.698Z,9.40
2022-09-17T01:51:22.296Z,9.30
2022-09-17T01:56:31.809Z,9.10
2022-09-17T02:01:34.965Z,9.00
2022-09-17T02:06:40.973Z,9.00
2022-09-17T02:11:49.400Z,9.00
2022-09-17T02:16:57.274Z,9.10
2022-09-17T02:22:03.050Z,9.00
2022-09-17T02:27:19.891Z,8.90
2022-09-17T02:32:22.237Z,8.70
2022-09-17T02:37:24.547Z,8.70
2022-09-17T02:42:26.857Z,8.70
2022-09-17T02:47:35.689Z,8.60
2022-09-17T02:52:56.660Z,8.60
2022-09-17T02:58:27.931Z,8.60
2022-09-17T03:03:35.764Z,8.60
2022-09-17T03:08:41.625Z,8.60
2022-09-17T03:13:44.266Z,8.60
2022-09-17T03:18:46.691Z,8.60
2022-09-17T03:23:49.158Z,8.50
2022-09-17T03:28:51.645Z,8.40
2022-09-17T03:33:54.036Z,8.30
2022-09-17T03:38:59.655Z,8.20
2022-09-17T03:44:02.159Z,8.20
2022-09-17T03:49:04.864Z,8.30
2022-09-17T03:54:07.442Z,8.20
2022-09-17T03:59:09.797Z,8.20
2022-09-17T04:04:12.076Z,8.20
2022-09-17T04:09:14.351Z,8.10
2022-09-17T04:14:16.630Z,8.10
2022-09-17T04:19:18.940Z,8.10
2022-09-17T04:24:21.268Z,8.00
2022-09-17T04:29:23.551Z,7.90
2022-09-17T04:34:25.839Z,7.90
2022-09-17T04:39:28.131Z,7.80
2022-09-17T04:44:30.444Z,7.80
2022-09-17T04:49:33.028Z,7.80
2022-09-17T04:54:35.577Z,7.80
2022-09-17T04:59:37.907Z,7.70
2022-09-17T05:04:40.157Z,7.60
2022-09-17T05:09:42.977Z,7.60
2022-09-17T05:14:45.215Z,7.60
2022-09-17T05:19:47.472Z,7.50
2022-09-17T05:24:49.781Z,7.50
2022-09-17T05:29:52.114Z,7.50
2022-09-17T05:34:54.278Z,7.40
2022-09-17T05:39:56.513Z,7.30
2022-09-17T05:44:58.765Z,7.30
2022-09-17T05:50:01.055Z,7.20
2022-09-17T05:55:03.483Z,7.20
2022-09-17T06:00:06.650Z,7.20
2022-09-17T06:05:15.985Z,7.10
2022-09-17T06:10:18.333Z,7.10
2022-09-17T06:15:20.561Z,7.10
2022-09-17T06:20:23.179Z,7.10
2022-09-17T06:25:26.719Z,7.10
2022-09-17T06:30:29.098Z,7.20
2022-09-17T06:35:31.594Z,7.20
2022-09-17T06:40:34.049Z,7.20
2022-09-17T06:45:36.341Z,7.20
2022-09-17T06:50:42.665Z,7.20
2022-09-17T06:55:45.452Z,7.30
2022-09-17T07:00:48.106Z,7.30
2022-09-17T07:05:50.436Z,7.40
2022-09-17T07:10:56.613Z,7.60
2022-09-17T07:16:01.206Z,7.70
2022-09-17T07:21:05.882Z,7.80
2022-09-17T07:26:13.630Z,7.90
2022-09-17T07:31:16.916Z,8.10
2022-09-17T07:36:19.587Z,8.30
2022-09-17T07:41:21.840Z,8.50
2022-09-17T07:46:24.185Z,8.70
2022-09-17T07:51:30.463Z,8.90
2022-09-17T07:56:32.806Z,9.20
2022-09-17T08:01:36.702Z,9.50
2022-09-17T08:06:40.729Z,9.70
2022-09-17T08:11:59.052Z,10.00
2022-09-17T08:17:01.311Z,10.40
2022-09-17T08:22:03.558Z,10.70
2022-09-17T08:27:05.809Z,11.10
2022-09-17T08:32:08.337Z,11.50
2022-09-17T08:37:10.648Z,11.90
2022-09-17T08:42:30.156Z,12.30
2022-09-17T08:47:36.555Z,12.70
2022-09-17T08:53:06.811Z,13.10
2022-09-17T08:58:53.691Z,13.70
2022-09-17T09:04:20.043Z,14.40
2022-09-17T09:09:26.355Z,15.00
2022-09-17T09:14:33.798Z,15.50
2022-09-17T09:19:44.544Z,16.00
2022-09-17T09:25:20.698Z,16.30
2022-09-17T09:30:25.054Z,16.70
2022-09-17T09:35:34.667Z,17.20
2022-09-17T09:40:59.628Z,17.90
2022-09-17T09:46:16.833Z,18.20
2022-09-17T09:51:43.237Z,18.00
2022-09-17T09:57:04.162Z,17.50
2022-09-17T10:02:06.837Z,16.90
2022-09-17T10:07:11.637Z,17.00
2022-09-17T10:12:13.802Z,17.50
2022-09-17T10:17:23.596Z,17.70
2022-09-17T10:22:33.440Z,16.90
2022-09-17T10:27:37.065Z,16.40
2022-09-17T10:32:39.394Z,16.20
2022-09-17T10:37:46.995Z,16.10
2022-09-17T10:42:51.349Z,17.00
2022-09-17T10:47:54.992Z,17.40
2022-09-17T10:53:03.848Z,18.10
2022-09-17T10:58:08.794Z,18.70
2022-09-17T11:03:48.674Z,17.80
2022-09-17T11:09:01.707Z,17.60
2022-09-17T11:14:56.889Z,18.00
2022-09-17T11:20:05.368Z,18.20
2022-09-17T11:25:16.550Z,17.70
2022-09-17T11:30:21.981Z,18.70
2022-09-17T11:35:29.804Z,19.50
2022-09-17T11:40:38.018Z,19.70
2022-09-17T11:45:48.084Z,19.70
2022-09-17T11:50:59.082Z,19.70
2022-09-17T11:56:28.517Z,19.80
2022-09-17T12:01:52.717Z,20.00
2022-09-17T12:07:36.438Z,19.90
2022-09-17T12:12:50.354Z,19.00
2022-09-17T12:18:31.080Z,18.60
2022-09-17T12:23:41.341Z,19.00
2022-09-17T12:29:11.174Z,18.70
2022-09-17T12:34:44.344Z,19.20
2022-09-17T12:39:55.353Z,19.50
2022-09-17T12:45:18.011Z,19.10
2022-09-17T12:50:26.607Z,18.70
2022-09-17T12:55:40.926Z,18.60
2022-09-17T13:01:11.059Z,18.40
2022-09-17T13:06:39.941Z,17.70
2022-09-17T13:11:59.713Z,17.90
2022-09-17T13:17:19.663Z,17.60
2022-09-17T13:22:26.358Z,17.90
2022-09-17T13:27:29.344Z,18.30
2022-09-17T13:32:38.302Z,18.60
2022-09-17T13:38:00.857Z,18.30
2022-09-17T13:43:09.456Z,18.10
2022-09-17T13:48:12.244Z,18.20
2022-09-17T13:53:14.565Z,18.10
2022-09-17T13:58:27.154Z,18.00
2022-09-17T14:03:44.505Z,17.90
2022-09-17T14:08:53.025Z,17.70
2022-09-17T14:13:58.447Z,17.60
2022-09-17T14:19:25.307Z,17.30
2022-09-17T14:24:43.340Z,17.10
2022-09-17T14:30:30.776Z,17.00
2022-09-17T14:35:40.849Z,17.10
2022-09-17T14:41:09.718Z,17.10
2022-09-17T14:46:29.120Z,17.10
2022-09-17T14:51:39.588Z,17.00
2022-09-17T14:57:10.836Z,16.90
2022-09-17T15:02:46.759Z,16.70
2022-09-17T15:07:50.277Z,16.80
2022-09-17T15:13:02.499Z,16.60
2022-09-17T15:18:27.355Z,16.70
2022-09-17T15:23:41.119Z,16.70
2022-09-17T15:28:49.262Z,16.80
2022-09-17T15:33:53.307Z,16.80
2022-09-17T15:39:33.918Z,16.80
2022-09-17T15:44:38.461Z,16.90
2022-09-17T15:49:44.925Z,16.80
2022-09-17T15:54:53.616Z,16.80
2022-09-17T16:00:33.587Z,16.70
2022-09-17T16:05:58.000Z,16.40
2022-09-17T16:23:41.511Z,16.30
2022-09-17T16:29:30.197Z,16.50
2022-09-17T16:42:01.837Z,16.30
2022-09-17T16:54:17.934Z,16.50
2022-09-17T16:59:40.191Z,16.40
2022-09-17T17:04:44.268Z,16.40
2022-09-17T17:15:18.758Z,18.20
2022-09-17T17:20:30.459Z,18.60
2022-09-17T17:25:35.722Z,19.00
2022-09-17T17:30:39.230Z,19.00
2022-09-17T17:35:42.453Z,18.70
2022-09-17T17:40:47.544Z,18.20
2022-09-17T17:45:49.958Z,18.00
2022-09-17T17:50:56.428Z,16.90
2022-09-17T17:56:04.521Z,16.00
2022-09-17T18:01:23.374Z,15.40
2022-09-17T18:06:27.000Z,15.10
2022-09-17T18:11:29.746Z,14.80
2022-09-17T18:16:32.389Z,14.60
2022-09-17T18:21:34.835Z,14.40
2022-09-17T18:26:37.634Z,14.20
2022-09-17T18:31:40.207Z,14.00
2022-09-17T18:36:45.512Z,13.80
2022-09-17T18:41:51.246Z,13.60
2022-09-17T18:46:53.665Z,13.40
2022-09-17T18:51:56.072Z,13.30
2022-09-17T18:56:58.439Z,13.10
2022-09-17T19:02:00.889Z,12.90
2022-09-17T19:07:03.229Z,12.80
2022-09-17T19:12:06.066Z,12.60
2022-09-17T19:17:09.207Z,12.60
2022-09-17T19:22:11.627Z,12.50
2022-09-17T19:27:14.363Z,12.40
2022-09-17T19:32:16.765Z,12.30
2022-09-17T19:37:19.094Z,12.20
2022-09-17T19:42:21.524Z,12.10
2022-09-17T19:47:24.086Z,12.00
2022-09-17T19:52:26.373Z,11.90
2022-09-17T19:57:28.732Z,11.90
2022-09-17T20:02:31.130Z,11.70
2022-09-17T20:07:34.126Z,11.60
2022-09-17T20:12:36.581Z,11.60
2022-09-17T20:17:39.076Z,11.50
2022-09-17T20:22:41.719Z,11.40
2022-09-17T20:27:44.017Z,11.20
2022-09-17T20:32:46.331Z,11.10
2022-09-17T20:38:51.523Z,11.10
2022-09-17T20:43:11.179Z,11.10
2022-09-17T20:48:13.585Z,11.00
2022-09-17T20:53:15.999Z,10.90
2022-09-17T20:58:20.332Z,10.80
2022-09-17T21:03:23.206Z,10.80
2022-09-17T21:08:28.440Z,10.70
2022-09-17T21:13:30.908Z,10.60
2022-09-17T21:18:38.788Z,10.50
2022-09-17T21:23:42.979Z,10.40
2022-09-17T21:28:47.588Z,10.30
2022-09-17T21:33:58.776Z,10.30
2022-09-17T21:39:07.172Z,10.20
2022-09-17T21:44:09.979Z,10.10
2022-09-17T21:49:13.640Z,10.00
2022-09-17T21:54:17.259Z,9.80
2022-09-17T21:59:22.520Z,9.70
2022-09-17T22:04:25.848Z,9.60
2022-09-17T22:09:30.305Z,9.60
2022-09-17T22:14:32.590Z,9.60
2022-09-17T22:19:35.043Z,9.40
2022-09-17T22:24:38.652Z,9.30
2022-09-17T22:29:41.128Z,9.30
2022-09-17T22:34:43.382Z,9.20
2022-09-17T22:39:45.696Z,9.20
2022-09-17T22:44:47.989Z,9.10
2022-09-17T22:49:50.215Z,9.00
2022-09-17T22:54:52.488Z,9.00
2022-09-17T22:59:54.777Z,9.00
2022-09-17T23:04:57.737Z,8.90
2022-09-17T23:10:00.328Z,8.90
2022-09-17T23:15:02.670Z,8.80
2022-09-17T23:20:05.696Z,8.70
2022-09-17T23:25:08.395Z,8.60
2022-09-17T23:30:11.527Z,8.50
2022-09-17T23:35:13.861Z,8.40
2022-09-17T23:40:17.663Z,8.40
2022-09-17T23:45:20.079Z,8.40
2022-09-17T23:50:22.646Z,8.30
2022-09-17T23:55:24.888Z,8.30
